createdAt,value
2019-01-31T00:03:17.705Z,1.10
2019-01-31T00:06:53.665Z,1.00
2019-01-31T00:10:16.636Z,1.00
2019-01-31T00:13:46.182Z,1.00
2019-01-31T00:16:56.380Z,1.00
2019-01-31T00:20:26.714Z,1.00
2019-01-31T00:23:21.799Z,0.90
2019-01-31T00:26:59.592Z,0.90
2019-01-31T00:30:38.611Z,0.80
2019-01-31T00:33:46.009Z,0.90
2019-01-31T00:37:04.741Z,0.80
2019-01-31T00:43:17.287Z,0.80
2019-01-31T00:50:57.449Z,0.60
2019-01-31T00:54:20.792Z,0.70
2019-01-31T00:57:57.373Z,0.60
2019-01-31T01:01:11.958Z,0.60
2019-01-31T01:04:39.064Z,0.90
2019-01-31T01:07:31.560Z,0.50
2019-01-31T01:10:31.614Z,0.50
2019-01-31T01:13:55.304Z,0.50
2019-01-31T01:16:56.406Z,0.50
2019-01-31T01:20:11.026Z,0.50
2019-01-31T01:23:10.976Z,0.50
2019-01-31T01:26:14.504Z,0.50
2019-01-31T01:29:54.703Z,0.50
2019-01-31T01:32:46.606Z,0.40
2019-01-31T01:39:37.355Z,0.30
2019-01-31T01:43:05.116Z,0.40
2019-01-31T01:46:28.308Z,0.30
2019-01-31T01:49:46.765Z,0.30
2019-01-31T01:56:31.898Z,0.30
2019-01-31T02:00:03.303Z,0.20
2019-01-31T02:03:16.222Z,0.10
2019-01-31T02:06:17.164Z,0.60
2019-01-31T02:09:30.338Z,0.10
2019-01-31T02:12:46.015Z,0.00
2019-01-31T02:20:35.262Z,0.00
2019-01-31T02:24:04.435Z,0.00
2019-01-31T02:27:37.443Z,0.00
2019-01-31T02:31:11.626Z,0.00
2019-01-31T02:34:09.287Z,0.00
2019-01-31T02:37:45.314Z,-0.10
2019-01-31T02:41:35.758Z,0.70
2019-01-31T02:45:16.778Z,-0.10
2019-01-31T02:48:25.436Z,-0.10
2019-01-31T02:51:53.346Z,-0.10
2019-01-31T02:55:51.839Z,-0.10
2019-01-31T03:03:05.825Z,-0.20
2019-01-31T03:06:02.973Z,-0.20
2019-01-31T03:09:47.863Z,-0.30
2019-01-31T03:12:43.235Z,-0.30
2019-01-31T03:15:59.049Z,-0.30
2019-01-31T03:19:09.521Z,-0.30
2019-01-31T03:22:49.596Z,-0.30
2019-01-31T03:26:22.063Z,-0.30
2019-01-31T03:29:35.677Z,-0.20
2019-01-31T03:33:10.222Z,-0.20
2019-01-31T03:36:19.902Z,-0.20
2019-01-31T03:39:39.259Z,-0.10
2019-01-31T03:46:42.059Z,0.30
2019-01-31T03:49:37.760Z,-0.20
2019-01-31T03:52:54.240Z,-0.20
2019-01-31T03:56:05.786Z,-0.20
2019-01-31T03:59:13.623Z,-0.20
2019-01-31T04:02:43.010Z,-0.20
2019-01-31T04:05:40.391Z,-0.30
2019-01-31T04:08:16.752Z,-0.30
2019-01-31T04:11:08.098Z,-0.30
2019-01-31T04:13:54.407Z,-0.20
2019-01-31T04:16:34.489Z,-0.30
2019-01-31T04:19:38.552Z,-0.30
2019-01-31T04:22:22.215Z,-0.40
2019-01-31T04:25:15.658Z,-0.40
2019-01-31T04:28:08.061Z,-0.40
2019-01-31T04:34:01.456Z,-0.40
2019-01-31T04:36:46.130Z,-0.40
2019-01-31T04:40:04.135Z,-0.50
2019-01-31T04:43:20.127Z,-0.50
2019-01-31T04:46:41.859Z,-0.60
2019-01-31T04:49:36.546Z,-0.60
2019-01-31T04:52:35.888Z,-0.60
2019-01-31T04:55:51.095Z,-0.60
2019-01-31T04:59:13.909Z,-0.50
2019-01-31T05:01:58.446Z,-0.60
2019-01-31T05:04:45.664Z,-0.60
2019-01-31T05:07:55.715Z,-0.60
2019-01-31T05:11:33.293Z,-0.90
2019-01-31T05:19:49.988Z,-0.60
2019-01-31T05:21:21.022Z,-0.60
2019-01-31T05:24:46.923Z,-0.60
2019-01-31T05:27:26.364Z,-0.60
2019-01-31T05:31:30.630Z,-0.60
2019-01-31T05:33:49.869Z,-0.60
2019-01-31T05:36:56.322Z,-0.30
2019-01-31T05:39:57.588Z,-0.60
2019-01-31T05:48:47.291Z,-0.60
2019-01-31T05:52:08.296Z,-0.60
2019-01-31T05:55:28.060Z,-0.70
2019-01-31T06:05:11.604Z,-0.70
2019-01-31T06:11:36.651Z,-0.70
2019-01-31T06:15:09.662Z,-0.70
2019-01-31T06:23:10.873Z,-0.80
2019-01-31T06:29:44.335Z,-0.80
2019-01-31T06:33:04.428Z,-0.80
2019-01-31T06:35:56.144Z,-0.70
2019-01-31T06:38:54.197Z,-0.70
2019-01-31T06:41:55.767Z,-0.70
2019-01-31T06:44:59.333Z,-0.70
2019-01-31T06:51:35.099Z,-0.70
2019-01-31T06:55:29.453Z,-0.60
2019-01-31T06:57:51.802Z,-0.60
2019-01-31T07:05:11.116Z,-0.40
2019-01-31T07:19:57.842Z,-0.40
2019-01-31T07:33:53.172Z,-0.40
2019-01-31T07:37:08.377Z,-0.40
2019-01-31T07:40:34.650Z,-0.30
2019-01-31T07:47:31.247Z,-0.20
2019-01-31T07:50:38.944Z,-0.20
2019-01-31T07:53:53.059Z,-0.20
2019-01-31T07:57:13.194Z,-0.10
2019-01-31T08:00:27.455Z,0.00
2019-01-31T08:04:07.062Z,0.00
2019-01-31T08:07:09.145Z,0.00
2019-01-31T08:10:05.914Z,0.10
2019-01-31T08:17:04.967Z,0.30
2019-01-31T08:20:12.755Z,0.30
2019-01-31T08:23:05.449Z,0.30
2019-01-31T08:26:08.973Z,0.30
2019-01-31T08:29:44.520Z,0.40
2019-01-31T08:32:51.937Z,0.40
2019-01-31T08:36:00.973Z,0.40
2019-01-31T08:42:50.276Z,0.50
2019-01-31T08:46:06.317Z,0.50
2019-01-31T08:56:41.498Z,0.60
2019-01-31T09:06:06.554Z,0.90
2019-01-31T09:09:18.547Z,1.00
2019-01-31T09:12:59.304Z,1.10
2019-01-31T09:15:50.541Z,1.20
2019-01-31T09:19:20.856Z,1.30
2019-01-31T09:27:00.050Z,1.30
2019-01-31T09:38:26.283Z,1.90
2019-01-31T09:41:50.229Z,2.10
2019-01-31T09:45:10.268Z,2.20
2019-01-31T09:49:56.618Z,2.30
2019-01-31T09:59:50.974Z,2.80
2019-01-31T10:03:08.294Z,3.00
2019-01-31T10:06:42.650Z,3.00
2019-01-31T10:10:34.950Z,3.00
2019-01-31T10:14:20.734Z,2.80
2019-01-31T10:17:50.864Z,2.70
2019-01-31T10:20:58.398Z,2.60
2019-01-31T10:39:44.989Z,2.90
2019-01-31T10:47:24.470Z,2.90
2019-01-31T10:54:08.226Z,3.40
2019-01-31T11:10:41.618Z,4.70
2019-01-31T11:13:54.099Z,4.80
2019-01-31T11:21:13.873Z,5.30
2019-01-31T11:24:37.452Z,5.70
2019-01-31T11:32:45.417Z,6.00
2019-01-31T11:35:37.713Z,6.00
2019-01-31T11:39:09.428Z,6.20
2019-01-31T11:42:54.054Z,5.60
2019-01-31T11:46:28.169Z,4.90
2019-01-31T11:50:01.330Z,4.80
2019-01-31T11:53:02.827Z,4.90
2019-01-31T12:00:05.248Z,4.50
2019-01-31T12:04:06.962Z,4.10
2019-01-31T12:07:30.320Z,4.00
2019-01-31T12:10:42.336Z,3.80
2019-01-31T12:17:41.719Z,4.00
2019-01-31T12:20:56.710Z,3.80
2019-01-31T12:24:21.207Z,3.60
2019-01-31T12:27:45.648Z,3.20
2019-01-31T12:37:48.932Z,3.00
2019-01-31T12:41:16.841Z,2.90
2019-01-31T12:45:20.008Z,3.00
2019-01-31T12:56:54.643Z,2.80
2019-01-31T13:00:21.354Z,2.80
2019-01-31T13:14:42.201Z,2.70
2019-01-31T13:17:54.612Z,2.70
2019-01-31T13:21:09.469Z,2.70
2019-01-31T13:24:13.676Z,2.70
2019-01-31T13:27:43.519Z,2.60
2019-01-31T13:30:47.604Z,2.70
2019-01-31T13:34:05.512Z,2.60
2019-01-31T13:37:43.000Z,2.60
2019-01-31T13:45:15.615Z,2.70
2019-01-31T13:48:31.925Z,2.60
2019-01-31T13:51:42.486Z,2.60
2019-01-31T13:55:07.831Z,2.70
2019-01-31T14:01:49.004Z,2.80
2019-01-31T14:09:13.940Z,2.60
2019-01-31T14:12:48.811Z,2.60
2019-01-31T14:16:08.162Z,2.40
2019-01-31T14:19:32.837Z,2.40
2019-01-31T14:23:11.132Z,2.40
2019-01-31T14:26:59.911Z,2.50
2019-01-31T14:30:17.006Z,2.60
2019-01-31T14:37:26.764Z,2.50
2019-01-31T14:44:35.658Z,2.40
2019-01-31T14:47:35.283Z,2.10
2019-01-31T14:54:44.899Z,2.40
2019-01-31T14:57:29.193Z,2.40
2019-01-31T15:00:20.223Z,2.30
2019-01-31T15:03:59.295Z,2.30
2019-01-31T15:15:50.547Z,2.30
2019-01-31T15:23:15.256Z,2.40
2019-01-31T15:34:23.053Z,2.30
2019-01-31T15:43:55.223Z,2.30
2019-01-31T15:44:42.844Z,2.30
2019-01-31T15:55:36.840Z,2.20
2019-01-31T16:06:31.299Z,2.10
2019-01-31T16:09:29.375Z,2.10
2019-01-31T16:17:36.877Z,2.10
2019-01-31T16:24:53.171Z,2.10
2019-01-31T17:01:59.132Z,1.60
2019-01-31T17:50:28.309Z,1.40
2019-01-31T18:01:45.902Z,2.10
2019-01-31T18:20:23.396Z,1.40
2019-01-31T18:30:20.737Z,1.10
2019-01-31T19:22:33.755Z,0.60
2019-01-31T19:25:25.246Z,0.50
2019-01-31T19:55:59.815Z,0.30
2019-01-31T19:58:05.546Z,0.20
2019-01-31T20:01:26.383Z,0.20
2019-01-31T20:04:09.815Z,0.20
2019-01-31T20:11:11.659Z,-0.20
2019-01-31T20:14:38.560Z,0.40
2019-01-31T20:17:58.675Z,0.00
2019-01-31T20:20:51.084Z,0.00
2019-01-31T20:27:59.895Z,-0.10
2019-01-31T20:31:29.787Z,-0.10
2019-01-31T20:34:38.320Z,-0.10
2019-01-31T20:37:38.934Z,-0.10
2019-01-31T20:52:39.002Z,3.10
2019-01-31T21:00:12.599Z,3.70
2019-01-31T21:03:59.103Z,3.90
2019-01-31T21:07:14.301Z,2.10
2019-01-31T21:14:42.695Z,0.60
2019-01-31T21:18:27.896Z,0.30
2019-01-31T21:21:20.367Z,0.10
2019-01-31T21:24:47.265Z,0.00
2019-01-31T21:34:44.658Z,-0.20
2019-01-31T21:38:04.126Z,-0.20
2019-01-31T21:41:01.773Z,-0.20
2019-01-31T21:44:28.211Z,-0.20
2019-01-31T21:47:40.643Z,-0.20
2019-01-31T21:57:29.316Z,-0.20
2019-01-31T22:01:00.734Z,-0.20
2019-01-31T22:04:01.198Z,-0.30
2019-01-31T22:07:14.856Z,-0.30
2019-01-31T22:10:46.786Z,-0.30
2019-01-31T22:15:22.271Z,-0.20
2019-01-31T22:18:31.667Z,-0.20
2019-01-31T22:21:38.601Z,-0.20
2019-01-31T22:28:18.718Z,-0.20
2019-01-31T22:31:45.249Z,-0.10
2019-01-31T22:34:42.264Z,-0.10
2019-01-31T22:38:11.235Z,0.00
2019-01-31T22:42:04.625Z,0.20
2019-01-31T22:44:53.221Z,0.00
2019-01-31T22:48:05.373Z,0.00
2019-01-31T22:51:08.344Z,0.00
2019-01-31T22:54:04.526Z,0.10
2019-01-31T22:57:35.314Z,0.00
2019-01-31T23:01:18.351Z,0.10
2019-01-31T23:04:36.004Z,0.00
2019-01-31T23:11:08.481Z,0.20
2019-01-31T23:13:57.815Z,0.20
2019-01-31T23:17:20.900Z,0.10
2019-01-31T23:20:30.705Z,0.20
2019-01-31T23:24:04.907Z,0.20
2019-01-31T23:31:17.731Z,0.20
2019-01-31T23:34:42.500Z,0.20
2019-01-31T23:37:37.124Z,0.20
2019-01-31T23:40:54.922Z,0.10
2019-01-31T23:44:18.566Z,0.10
2019-01-31T23:47:26.445Z,0.10
2019-01-31T23:50:52.779Z,0.10
2019-01-31T23:57:31.303Z,0.20
